sensor_id;sensor_type;location;lat;lon;timestamp;P1;durP1;ratioP1;P2;durP2;ratioP2
55633;SDS011;41504;53.162;6.788;2023-04-07T00:01:26;21.50;;;15.27;;
55633;SDS011;41504;53.162;6.788;2023-04-07T00:03:52;23.08;;;15.52;;
55633;SDS011;41504;53.162;6.788;2023-04-07T00:06:18;22.33;;;16.42;;
55633;SDS011;41504;53.162;6.788;2023-04-07T00:08:44;21.58;;;15.98;;
55633;SDS011;41504;53.162;6.788;2023-04-07T00:11:09;22.10;;;16.25;;
55633;SDS011;41504;53.162;6.788;2023-04-07T00:13:35;21.42;;;16.30;;
55633;SDS011;41504;53.162;6.788;2023-04-07T00:16:01;22.05;;;16.23;;
55633;SDS011;41504;53.162;6.788;2023-04-07T00:18:29;23.98;;;16.27;;
55633;SDS011;41504;53.162;6.788;2023-04-07T00:20:58;20.45;;;15.40;;
55633;SDS011;41504;53.162;6.788;2023-04-07T00:23:34;22.60;;;16.52;;
55633;SDS011;41504;53.162;6.788;2023-04-07T00:26:06;23.00;;;16.50;;
55633;SDS011;41504;53.162;6.788;2023-04-07T00:28:32;20.88;;;15.95;;
55633;SDS011;41504;53.162;6.788;2023-04-07T00:30:57;21.90;;;16.17;;
55633;SDS011;41504;53.162;6.788;2023-04-07T00:33:23;21.42;;;15.90;;
55633;SDS011;41504;53.162;6.788;2023-04-07T00:35:50;20.65;;;16.25;;
55633;SDS011;41504;53.162;6.788;2023-04-07T00:38:16;21.45;;;16.13;;
55633;SDS011;41504;53.162;6.788;2023-04-07T00:40:42;20.98;;;15.82;;
55633;SDS011;41504;53.162;6.788;2023-04-07T00:43:08;20.65;;;15.40;;
55633;SDS011;41504;53.162;6.788;2023-04-07T00:45:37;22.73;;;16.70;;
55633;SDS011;41504;53.162;6.788;2023-04-07T00:48:09;21.73;;;16.15;;
55633;SDS011;41504;53.162;6.788;2023-04-07T00:50:37;21.73;;;15.60;;
55633;SDS011;41504;53.162;6.788;2023-04-07T00:53:03;24.83;;;17.40;;
55633;SDS011;41504;53.162;6.788;2023-04-07T00:55:29;21.63;;;16.40;;
55633;SDS011;41504;53.162;6.788;2023-04-07T00:57:58;20.55;;;15.57;;
55633;SDS011;41504;53.162;6.788;2023-04-07T01:00:24;19.48;;;15.48;;
55633;SDS011;41504;53.162;6.788;2023-04-07T01:02:59;20.92;;;16.25;;
55633;SDS011;41504;53.162;6.788;2023-04-07T01:10:39;20.42;;;16.20;;
55633;SDS011;41504;53.162;6.788;2023-04-07T01:13:11;21.63;;;15.68;;
55633;SDS011;41504;53.162;6.788;2023-04-07T01:15:53;21.33;;;16.45;;
55633;SDS011;41504;53.162;6.788;2023-04-07T01:18:23;21.00;;;15.98;;
55633;SDS011;41504;53.162;6.788;2023-04-07T01:20:55;21.35;;;16.15;;
55633;SDS011;41504;53.162;6.788;2023-04-07T01:23:48;20.92;;;16.67;;
55633;SDS011;41504;53.162;6.788;2023-04-07T01:26:30;20.45;;;15.82;;
55633;SDS011;41504;53.162;6.788;2023-04-07T01:31:59;20.55;;;15.57;;
55633;SDS011;41504;53.162;6.788;2023-04-07T01:34:32;22.77;;;16.73;;
55633;SDS011;41504;53.162;6.788;2023-04-07T01:37:00;20.23;;;15.40;;
55633;SDS011;41504;53.162;6.788;2023-04-07T01:39:27;19.58;;;14.93;;
55633;SDS011;41504;53.162;6.788;2023-04-07T01:41:53;19.80;;;15.57;;
55633;SDS011;41504;53.162;6.788;2023-04-07T01:44:20;21.83;;;15.60;;
55633;SDS011;41504;53.162;6.788;2023-04-07T01:46:47;20.92;;;16.33;;
55633;SDS011;41504;53.162;6.788;2023-04-07T01:49:15;22.05;;;16.58;;
55633;SDS011;41504;53.162;6.788;2023-04-07T01:51:44;21.33;;;15.93;;
55633;SDS011;41504;53.162;6.788;2023-04-07T01:54:14;22.30;;;16.23;;
55633;SDS011;41504;53.162;6.788;2023-04-07T01:56:42;21.90;;;16.05;;
55633;SDS011;41504;53.162;6.788;2023-04-07T01:59:09;22.23;;;15.70;;
55633;SDS011;41504;53.162;6.788;2023-04-07T02:01:35;20.15;;;16.05;;
55633;SDS011;41504;53.162;6.788;2023-04-07T02:06:41;22.67;;;16.35;;
55633;SDS011;41504;53.162;6.788;2023-04-07T02:11:39;21.17;;;16.15;;
55633;SDS011;41504;53.162;6.788;2023-04-07T02:14:08;19.88;;;15.77;;
55633;SDS011;41504;53.162;6.788;2023-04-07T02:16:34;21.13;;;15.88;;
55633;SDS011;41504;53.162;6.788;2023-04-07T02:19:04;23.98;;;17.30;;
55633;SDS011;41504;53.162;6.788;2023-04-07T02:21:30;21.10;;;15.95;;
55633;SDS011;41504;53.162;6.788;2023-04-07T02:24:06;21.92;;;15.98;;
55633;SDS011;41504;53.162;6.788;2023-04-07T02:26:33;22.17;;;17.13;;
55633;SDS011;41504;53.162;6.788;2023-04-07T02:29:00;19.65;;;15.63;;
55633;SDS011;41504;53.162;6.788;2023-04-07T02:31:29;21.33;;;16.42;;
55633;SDS011;41504;53.162;6.788;2023-04-07T02:33:58;21.25;;;16.38;;
55633;SDS011;41504;53.162;6.788;2023-04-07T02:36:24;21.85;;;16.45;;
55633;SDS011;41504;53.162;6.788;2023-04-07T02:38:51;23.48;;;16.52;;
55633;SDS011;41504;53.162;6.788;2023-04-07T02:41:17;22.02;;;16.33;;
55633;SDS011;41504;53.162;6.788;2023-04-07T02:43:43;21.05;;;15.93;;
55633;SDS011;41504;53.162;6.788;2023-04-07T02:46:08;21.45;;;15.68;;
55633;SDS011;41504;53.162;6.788;2023-04-07T02:48:37;21.63;;;15.75;;
55633;SDS011;41504;53.162;6.788;2023-04-07T02:51:03;19.80;;;14.93;;
55633;SDS011;41504;53.162;6.788;2023-04-07T02:53:29;21.60;;;16.02;;
55633;SDS011;41504;53.162;6.788;2023-04-07T02:55:55;20.75;;;16.15;;
55633;SDS011;41504;53.162;6.788;2023-04-07T02:58:21;22.33;;;16.88;;
55633;SDS011;41504;53.162;6.788;2023-04-07T03:00:48;21.70;;;16.23;;
55633;SDS011;41504;53.162;6.788;2023-04-07T03:03:14;18.67;;;14.68;;
55633;SDS011;41504;53.162;6.788;2023-04-07T03:05:45;22.17;;;15.50;;
55633;SDS011;41504;53.162;6.788;2023-04-07T03:08:14;20.10;;;15.40;;
55633;SDS011;41504;53.162;6.788;2023-04-07T03:10:40;20.60;;;15.73;;
55633;SDS011;41504;53.162;6.788;2023-04-07T03:13:09;21.15;;;16.17;;
55633;SDS011;41504;53.162;6.788;2023-04-07T03:15:40;21.17;;;16.10;;
55633;SDS011;41504;53.162;6.788;2023-04-07T03:18:10;20.60;;;15.90;;
55633;SDS011;41504;53.162;6.788;2023-04-07T03:20:36;20.17;;;15.85;;
55633;SDS011;41504;53.162;6.788;2023-04-07T03:23:11;22.23;;;16.88;;
55633;SDS011;41504;53.162;6.788;2023-04-07T03:25:40;24.02;;;16.40;;
55633;SDS011;41504;53.162;6.788;2023-04-07T03:28:07;21.67;;;16.48;;
55633;SDS011;41504;53.162;6.788;2023-04-07T03:30:36;22.40;;;16.63;;
55633;SDS011;41504;53.162;6.788;2023-04-07T03:33:02;21.30;;;15.57;;
55633;SDS011;41504;53.162;6.788;2023-04-07T03:35:31;22.10;;;17.02;;
55633;SDS011;41504;53.162;6.788;2023-04-07T03:37:57;24.10;;;16.83;;
55633;SDS011;41504;53.162;6.788;2023-04-07T03:40:26;22.05;;;16.70;;
55633;SDS011;41504;53.162;6.788;2023-04-07T03:42:51;22.63;;;17.17;;
55633;SDS011;41504;53.162;6.788;2023-04-07T03:45:20;22.25;;;16.48;;
55633;SDS011;41504;53.162;6.788;2023-04-07T03:47:55;22.65;;;16.40;;
55633;SDS011;41504;53.162;6.788;2023-04-07T03:50:21;20.73;;;15.75;;
55633;SDS011;41504;53.162;6.788;2023-04-07T03:52:47;22.05;;;16.65;;
55633;SDS011;41504;53.162;6.788;2023-04-07T03:55:16;20.15;;;15.98;;
55633;SDS011;41504;53.162;6.788;2023-04-07T03:57:45;20.92;;;16.25;;
55633;SDS011;41504;53.162;6.788;2023-04-07T04:00:15;20.30;;;15.57;;
55633;SDS011;41504;53.162;6.788;2023-04-07T04:02:46;20.33;;;15.35;;
55633;SDS011;41504;53.162;6.788;2023-04-07T04:05:15;21.85;;;16.15;;
55633;SDS011;41504;53.162;6.788;2023-04-07T04:07:44;22.35;;;16.67;;
55633;SDS011;41504;53.162;6.788;2023-04-07T04:10:10;19.75;;;15.65;;
55633;SDS011;41504;53.162;6.788;2023-04-07T04:12:41;22.42;;;16.38;;
55633;SDS011;41504;53.162;6.788;2023-04-07T04:15:11;20.60;;;15.70;;
55633;SDS011;41504;53.162;6.788;2023-04-07T04:17:37;21.23;;;15.82;;
55633;SDS011;41504;53.162;6.788;2023-04-07T04:20:06;20.95;;;15.55;;
55633;SDS011;41504;53.162;6.788;2023-04-07T04:22:46;21.08;;;15.40;;
55633;SDS011;41504;53.162;6.788;2023-04-07T04:25:12;21.25;;;16.42;;
55633;SDS011;41504;53.162;6.788;2023-04-07T04:27:41;19.55;;;15.02;;
55633;SDS011;41504;53.162;6.788;2023-04-07T04:30:10;20.10;;;14.93;;
55633;SDS011;41504;53.162;6.788;2023-04-07T04:32:37;22.38;;;16.73;;
55633;SDS011;41504;53.162;6.788;2023-04-07T04:35:05;21.00;;;15.43;;
55633;SDS011;41504;53.162;6.788;2023-04-07T04:37:34;21.95;;;16.65;;
55633;SDS011;41504;53.162;6.788;2023-04-07T04:40:03;20.65;;;16.15;;
55633;SDS011;41504;53.162;6.788;2023-04-07T04:42:33;19.17;;;15.20;;
55633;SDS011;41504;53.162;6.788;2023-04-07T04:45:06;19.95;;;16.13;;
55633;SDS011;41504;53.162;6.788;2023-04-07T04:47:33;21.48;;;16.13;;
55633;SDS011;41504;53.162;6.788;2023-04-07T04:49:59;20.00;;;15.57;;
55633;SDS011;41504;53.162;6.788;2023-04-07T04:52:28;21.13;;;16.15;;
55633;SDS011;41504;53.162;6.788;2023-04-07T04:54:58;19.90;;;15.25;;
55633;SDS011;41504;53.162;6.788;2023-04-07T04:57:27;19.27;;;14.97;;
55633;SDS011;41504;53.162;6.788;2023-04-07T04:59:54;23.40;;;17.08;;
55633;SDS011;41504;53.162;6.788;2023-04-07T05:02:20;21.15;;;16.73;;
55633;SDS011;41504;53.162;6.788;2023-04-07T05:04:46;20.58;;;15.27;;
55633;SDS011;41504;53.162;6.788;2023-04-07T05:07:14;24.05;;;17.20;;
55633;SDS011;41504;53.162;6.788;2023-04-07T05:09:40;20.90;;;15.55;;
55633;SDS011;41504;53.162;6.788;2023-04-07T05:12:06;22.25;;;16.25;;
55633;SDS011;41504;53.162;6.788;2023-04-07T05:14:35;21.05;;;15.93;;
55633;SDS011;41504;53.162;6.788;2023-04-07T05:17:03;24.27;;;16.65;;
55633;SDS011;41504;53.162;6.788;2023-04-07T05:19:32;22.70;;;16.67;;
55633;SDS011;41504;53.162;6.788;2023-04-07T05:21:58;21.55;;;16.20;;
55633;SDS011;41504;53.162;6.788;2023-04-07T05:24:27;22.75;;;16.70;;
55633;SDS011;41504;53.162;6.788;2023-04-07T05:26:53;22.20;;;16.67;;
55633;SDS011;41504;53.162;6.788;2023-04-07T05:29:21;21.20;;;16.25;;
55633;SDS011;41504;53.162;6.788;2023-04-07T05:31:47;20.85;;;16.17;;
55633;SDS011;41504;53.162;6.788;2023-04-07T05:34:13;19.77;;;15.65;;
55633;SDS011;41504;53.162;6.788;2023-04-07T05:36:39;21.48;;;16.30;;
55633;SDS011;41504;53.162;6.788;2023-04-07T05:39:05;22.52;;;17.45;;
55633;SDS011;41504;53.162;6.788;2023-04-07T05:41:31;23.27;;;17.48;;
55633;SDS011;41504;53.162;6.788;2023-04-07T05:43:57;24.77;;;16.80;;
55633;SDS011;41504;53.162;6.788;2023-04-07T05:46:22;21.83;;;16.88;;
55633;SDS011;41504;53.162;6.788;2023-04-07T05:48:51;21.80;;;17.23;;
55633;SDS011;41504;53.162;6.788;2023-04-07T05:51:17;23.05;;;17.30;;
55633;SDS011;41504;53.162;6.788;2023-04-07T05:53:43;21.58;;;17.23;;
55633;SDS011;41504;53.162;6.788;2023-04-07T05:56:09;24.15;;;17.92;;
55633;SDS011;41504;53.162;6.788;2023-04-07T05:58:35;24.48;;;17.25;;
55633;SDS011;41504;53.162;6.788;2023-04-07T06:01:00;23.55;;;17.15;;
55633;SDS011;41504;53.162;6.788;2023-04-07T06:03:26;22.25;;;16.90;;
55633;SDS011;41504;53.162;6.788;2023-04-07T06:05:52;22.60;;;16.90;;
55633;SDS011;41504;53.162;6.788;2023-04-07T06:08:18;22.55;;;16.23;;
55633;SDS011;41504;53.162;6.788;2023-04-07T06:10:43;22.20;;;16.75;;
55633;SDS011;41504;53.162;6.788;2023-04-07T06:13:09;22.63;;;17.10;;
55633;SDS011;41504;53.162;6.788;2023-04-07T06:15:35;22.98;;;16.42;;
55633;SDS011;41504;53.162;6.788;2023-04-07T06:18:01;23.90;;;16.50;;
55633;SDS011;41504;53.162;6.788;2023-04-07T06:20:27;21.83;;;15.55;;
55633;SDS011;41504;53.162;6.788;2023-04-07T06:22:53;22.38;;;16.77;;
55633;SDS011;41504;53.162;6.788;2023-04-07T06:25:19;21.23;;;16.50;;
55633;SDS011;41504;53.162;6.788;2023-04-07T06:27:45;22.85;;;17.48;;
55633;SDS011;41504;53.162;6.788;2023-04-07T06:30:11;21.60;;;17.10;;
55633;SDS011;41504;53.162;6.788;2023-04-07T06:32:37;21.67;;;16.90;;
55633;SDS011;41504;53.162;6.788;2023-04-07T06:35:03;21.95;;;16.00;;
55633;SDS011;41504;53.162;6.788;2023-04-07T06:37:29;21.10;;;16.63;;
55633;SDS011;41504;53.162;6.788;2023-04-07T06:39:55;21.08;;;16.63;;
55633;SDS011;41504;53.162;6.788;2023-04-07T06:42:30;20.90;;;15.50;;
55633;SDS011;41504;53.162;6.788;2023-04-07T06:44:56;22.35;;;16.48;;
55633;SDS011;41504;53.162;6.788;2023-04-07T06:47:22;22.95;;;16.15;;
55633;SDS011;41504;53.162;6.788;2023-04-07T06:52:47;22.95;;;16.15;;
55633;SDS011;41504;53.162;6.788;2023-04-07T06:55:16;19.95;;;15.32;;
55633;SDS011;41504;53.162;6.788;2023-04-07T06:57:41;23.00;;;16.17;;
55633;SDS011;41504;53.162;6.788;2023-04-07T07:00:07;20.15;;;15.38;;
55633;SDS011;41504;53.162;6.788;2023-04-07T07:02:34;19.55;;;16.17;;
55633;SDS011;41504;53.162;6.788;2023-04-07T07:05:00;22.55;;;16.58;;
55633;SDS011;41504;53.162;6.788;2023-04-07T07:07:26;22.00;;;15.60;;
55633;SDS011;41504;53.162;6.788;2023-04-07T07:09:52;21.58;;;15.25;;
55633;SDS011;41504;53.162;6.788;2023-04-07T07:12:18;22.15;;;16.52;;
55633;SDS011;41504;53.162;6.788;2023-04-07T07:14:44;21.42;;;15.80;;
55633;SDS011;41504;53.162;6.788;2023-04-07T07:17:10;20.33;;;15.13;;
55633;SDS011;41504;53.162;6.788;2023-04-07T07:19:35;20.35;;;14.90;;
55633;SDS011;41504;53.162;6.788;2023-04-07T07:22:01;18.45;;;14.27;;
55633;SDS011;41504;53.162;6.788;2023-04-07T07:24:28;19.38;;;14.90;;
55633;SDS011;41504;53.162;6.788;2023-04-07T07:26:54;19.60;;;14.98;;
55633;SDS011;41504;53.162;6.788;2023-04-07T07:29:21;19.17;;;14.57;;
55633;SDS011;41504;53.162;6.788;2023-04-07T07:31:47;19.27;;;14.95;;
55633;SDS011;41504;53.162;6.788;2023-04-07T07:34:13;18.00;;;13.82;;
55633;SDS011;41504;53.162;6.788;2023-04-07T07:36:38;21.60;;;15.23;;
55633;SDS011;41504;53.162;6.788;2023-04-07T07:39:04;20.88;;;15.27;;
55633;SDS011;41504;53.162;6.788;2023-04-07T07:41:31;20.38;;;15.32;;
55633;SDS011;41504;53.162;6.788;2023-04-07T07:43:56;21.10;;;15.70;;
55633;SDS011;41504;53.162;6.788;2023-04-07T07:46:23;19.70;;;15.43;;
55633;SDS011;41504;53.162;6.788;2023-04-07T07:48:51;19.98;;;15.13;;
55633;SDS011;41504;53.162;6.788;2023-04-07T07:51:17;21.83;;;16.08;;
55633;SDS011;41504;53.162;6.788;2023-04-07T07:53:51;19.90;;;15.50;;
55633;SDS011;41504;53.162;6.788;2023-04-07T07:56:20;19.98;;;14.63;;
55633;SDS011;41504;53.162;6.788;2023-04-07T07:58:52;22.83;;;15.50;;
55633;SDS011;41504;53.162;6.788;2023-04-07T08:01:18;22.38;;;16.17;;
55633;SDS011;41504;53.162;6.788;2023-04-07T08:03:43;22.88;;;17.58;;
55633;SDS011;41504;53.162;6.788;2023-04-07T08:06:09;24.83;;;19.08;;
55633;SDS011;41504;53.162;6.788;2023-04-07T08:08:36;25.10;;;18.85;;
55633;SDS011;41504;53.162;6.788;2023-04-07T08:11:01;24.30;;;19.15;;
55633;SDS011;41504;53.162;6.788;2023-04-07T08:13:27;25.60;;;19.13;;
55633;SDS011;41504;53.162;6.788;2023-04-07T08:15:53;27.63;;;20.42;;
55633;SDS011;41504;53.162;6.788;2023-04-07T08:18:19;27.40;;;20.30;;
55633;SDS011;41504;53.162;6.788;2023-04-07T08:20:45;25.23;;;19.25;;
55633;SDS011;41504;53.162;6.788;2023-04-07T08:23:11;26.38;;;20.15;;
55633;SDS011;41504;53.162;6.788;2023-04-07T08:25:37;28.98;;;21.40;;
55633;SDS011;41504;53.162;6.788;2023-04-07T08:28:11;28.42;;;21.10;;
55633;SDS011;41504;53.162;6.788;2023-04-07T08:30:37;28.38;;;20.23;;
55633;SDS011;41504;53.162;6.788;2023-04-07T08:33:04;26.15;;;19.88;;
55633;SDS011;41504;53.162;6.788;2023-04-07T08:35:30;25.75;;;19.58;;
55633;SDS011;41504;53.162;6.788;2023-04-07T08:37:58;26.55;;;20.60;;
55633;SDS011;41504;53.162;6.788;2023-04-07T08:40:24;28.25;;;20.00;;
55633;SDS011;41504;53.162;6.788;2023-04-07T08:42:50;26.83;;;19.65;;
55633;SDS011;41504;53.162;6.788;2023-04-07T08:45:36;25.15;;;19.58;;
55633;SDS011;41504;53.162;6.788;2023-04-07T08:48:16;25.67;;;18.55;;
55633;SDS011;41504;53.162;6.788;2023-04-07T08:50:59;22.98;;;17.00;;
55633;SDS011;41504;53.162;6.788;2023-04-07T08:56:36;20.63;;;16.30;;
55633;SDS011;41504;53.162;6.788;2023-04-07T08:59:05;23.13;;;17.10;;
55633;SDS011;41504;53.162;6.788;2023-04-07T09:01:32;24.30;;;17.42;;
55633;SDS011;41504;53.162;6.788;2023-04-07T09:04:00;22.58;;;16.23;;
55633;SDS011;41504;53.162;6.788;2023-04-07T09:06:28;19.55;;;14.65;;
55633;SDS011;41504;53.162;6.788;2023-04-07T09:08:59;22.88;;;16.23;;
55633;SDS011;41504;53.162;6.788;2023-04-07T09:11:25;20.48;;;15.48;;
55633;SDS011;41504;53.162;6.788;2023-04-07T09:13:52;19.98;;;14.82;;
55633;SDS011;41504;53.162;6.788;2023-04-07T09:16:18;19.85;;;14.40;;
55633;SDS011;41504;53.162;6.788;2023-04-07T09:18:44;17.92;;;13.70;;
55633;SDS011;41504;53.162;6.788;2023-04-07T09:21:10;18.42;;;13.25;;
55633;SDS011;41504;53.162;6.788;2023-04-07T09:23:37;18.92;;;13.48;;
55633;SDS011;41504;53.162;6.788;2023-04-07T09:31:46;18.42;;;13.00;;
55633;SDS011;41504;53.162;6.788;2023-04-07T09:34:25;15.68;;;11.70;;
55633;SDS011;41504;53.162;6.788;2023-04-07T09:40:33;16.83;;;11.57;;
55633;SDS011;41504;53.162;6.788;2023-04-07T09:43:03;15.52;;;11.35;;
55633;SDS011;41504;53.162;6.788;2023-04-07T09:56:48;19.10;;;13.40;;
55633;SDS011;41504;53.162;6.788;2023-04-07T10:11:50;17.38;;;12.73;;
55633;SDS011;41504;53.162;6.788;2023-04-07T10:17:25;15.30;;;11.38;;
55633;SDS011;41504;53.162;6.788;2023-04-07T10:20:23;15.50;;;11.38;;
55633;SDS011;41504;53.162;6.788;2023-04-07T10:22:55;15.63;;;11.63;;
55633;SDS011;41504;53.162;6.788;2023-04-07T10:28:38;12.77;;;9.38;;
55633;SDS011;41504;53.162;6.788;2023-04-07T10:31:07;12.30;;;8.90;;
55633;SDS011;41504;53.162;6.788;2023-04-07T10:33:48;11.75;;;8.88;;
55633;SDS011;41504;53.162;6.788;2023-04-07T10:36:19;13.30;;;9.57;;
55633;SDS011;41504;53.162;6.788;2023-04-07T10:41:41;10.93;;;7.90;;
55633;SDS011;41504;53.162;6.788;2023-04-07T10:44:08;10.80;;;7.50;;
55633;SDS011;41504;53.162;6.788;2023-04-07T10:50:24;10.07;;;6.85;;
55633;SDS011;41504;53.162;6.788;2023-04-07T10:55:53;10.27;;;7.32;;
55633;SDS011;41504;53.162;6.788;2023-04-07T10:58:31;10.38;;;7.43;;
55633;SDS011;41504;53.162;6.788;2023-04-07T11:04:11;11.40;;;7.75;;
55633;SDS011;41504;53.162;6.788;2023-04-07T11:06:45;11.20;;;7.80;;
55633;SDS011;41504;53.162;6.788;2023-04-07T11:09:17;10.13;;;7.70;;
55633;SDS011;41504;53.162;6.788;2023-04-07T11:11:44;10.77;;;8.48;;
55633;SDS011;41504;53.162;6.788;2023-04-07T11:14:29;11.75;;;8.57;;
55633;SDS011;41504;53.162;6.788;2023-04-07T11:20:03;10.60;;;7.72;;
55633;SDS011;41504;53.162;6.788;2023-04-07T11:22:30;11.45;;;8.43;;
55633;SDS011;41504;53.162;6.788;2023-04-07T11:24:58;12.43;;;8.75;;
55633;SDS011;41504;53.162;6.788;2023-04-07T11:27:23;11.18;;;8.15;;
55633;SDS011;41504;53.162;6.788;2023-04-07T11:29:51;10.32;;;7.70;;
55633;SDS011;41504;53.162;6.788;2023-04-07T11:32:21;11.07;;;8.70;;
55633;SDS011;41504;53.162;6.788;2023-04-07T11:34:49;11.40;;;8.50;;
55633;SDS011;41504;53.162;6.788;2023-04-07T11:37:21;12.25;;;8.88;;
55633;SDS011;41504;53.162;6.788;2023-04-07T11:42:51;12.57;;;8.93;;
55633;SDS011;41504;53.162;6.788;2023-04-07T11:45:17;11.50;;;9.07;;
55633;SDS011;41504;53.162;6.788;2023-04-07T11:47:44;11.82;;;8.88;;
55633;SDS011;41504;53.162;6.788;2023-04-07T11:50:10;12.75;;;8.50;;
55633;SDS011;41504;53.162;6.788;2023-04-07T11:52:39;12.40;;;8.70;;
55633;SDS011;41504;53.162;6.788;2023-04-07T11:55:19;13.73;;;10.65;;
55633;SDS011;41504;53.162;6.788;2023-04-07T11:57:47;11.45;;;9.38;;
55633;SDS011;41504;53.162;6.788;2023-04-07T12:00:13;12.85;;;9.20;;
55633;SDS011;41504;53.162;6.788;2023-04-07T12:02:40;12.55;;;9.07;;
55633;SDS011;41504;53.162;6.788;2023-04-07T12:05:06;10.15;;;8.23;;
55633;SDS011;41504;53.162;6.788;2023-04-07T12:07:34;13.07;;;9.48;;
55633;SDS011;41504;53.162;6.788;2023-04-07T12:10:17;11.32;;;8.65;;
55633;SDS011;41504;53.162;6.788;2023-04-07T12:12:46;11.02;;;8.57;;
55633;SDS011;41504;53.162;6.788;2023-04-07T12:15:13;12.20;;;9.10;;
55633;SDS011;41504;53.162;6.788;2023-04-07T12:17:43;11.10;;;8.68;;
55633;SDS011;41504;53.162;6.788;2023-04-07T12:20:11;11.48;;;9.15;;
55633;SDS011;41504;53.162;6.788;2023-04-07T12:22:39;13.23;;;9.52;;
55633;SDS011;41504;53.162;6.788;2023-04-07T12:25:05;13.73;;;8.93;;
55633;SDS011;41504;53.162;6.788;2023-04-07T12:27:31;12.27;;;9.45;;
55633;SDS011;41504;53.162;6.788;2023-04-07T12:29:57;12.65;;;8.90;;
55633;SDS011;41504;53.162;6.788;2023-04-07T12:32:23;12.57;;;8.60;;
55633;SDS011;41504;53.162;6.788;2023-04-07T12:34:50;11.32;;;8.98;;
55633;SDS011;41504;53.162;6.788;2023-04-07T12:37:15;12.38;;;9.25;;
55633;SDS011;41504;53.162;6.788;2023-04-07T13:07:57;12.05;;;9.32;;
55633;SDS011;41504;53.162;6.788;2023-04-07T13:10:23;11.77;;;8.57;;
55633;SDS011;41504;53.162;6.788;2023-04-07T13:12:51;10.45;;;9.10;;
55633;SDS011;41504;53.162;6.788;2023-04-07T13:15:38;12.02;;;9.15;;
55633;SDS011;41504;53.162;6.788;2023-04-07T13:18:04;11.80;;;9.27;;
55633;SDS011;41504;53.162;6.788;2023-04-07T13:20:35;11.88;;;9.07;;
55633;SDS011;41504;53.162;6.788;2023-04-07T13:23:01;12.02;;;9.27;;
55633;SDS011;41504;53.162;6.788;2023-04-07T13:25:27;10.90;;;8.70;;
55633;SDS011;41504;53.162;6.788;2023-04-07T13:27:53;12.07;;;9.32;;
55633;SDS011;41504;53.162;6.788;2023-04-07T13:30:19;10.70;;;8.82;;
55633;SDS011;41504;53.162;6.788;2023-04-07T13:32:45;11.30;;;8.70;;
55633;SDS011;41504;53.162;6.788;2023-04-07T13:35:15;11.10;;;8.63;;
55633;SDS011;41504;53.162;6.788;2023-04-07T13:37:46;12.13;;;9.02;;
55633;SDS011;41504;53.162;6.788;2023-04-07T13:40:21;10.48;;;8.60;;
55633;SDS011;41504;53.162;6.788;2023-04-07T13:42:47;10.55;;;8.48;;
55633;SDS011;41504;53.162;6.788;2023-04-07T13:45:13;12.18;;;9.45;;
55633;SDS011;41504;53.162;6.788;2023-04-07T13:47:38;12.00;;;9.25;;
55633;SDS011;41504;53.162;6.788;2023-04-07T13:50:04;12.75;;;10.32;;
55633;SDS011;41504;53.162;6.788;2023-04-07T13:52:31;11.77;;;9.70;;
55633;SDS011;41504;53.162;6.788;2023-04-07T13:54:59;12.57;;;10.02;;
55633;SDS011;41504;53.162;6.788;2023-04-07T13:57:28;12.65;;;9.90;;
55633;SDS011;41504;53.162;6.788;2023-04-07T13:59:54;12.07;;;9.55;;
55633;SDS011;41504;53.162;6.788;2023-04-07T14:02:24;11.10;;;9.27;;
55633;SDS011;41504;53.162;6.788;2023-04-07T14:04:54;12.68;;;11.15;;
55633;SDS011;41504;53.162;6.788;2023-04-07T14:07:20;13.82;;;10.30;;
55633;SDS011;41504;53.162;6.788;2023-04-07T14:09:47;14.88;;;11.60;;
55633;SDS011;41504;53.162;6.788;2023-04-07T14:12:13;13.15;;;11.63;;
55633;SDS011;41504;53.162;6.788;2023-04-07T14:14:39;14.82;;;12.10;;
55633;SDS011;41504;53.162;6.788;2023-04-07T14:17:05;13.80;;;11.63;;
55633;SDS011;41504;53.162;6.788;2023-04-07T14:19:31;13.75;;;12.05;;
55633;SDS011;41504;53.162;6.788;2023-04-07T14:21:57;15.52;;;12.18;;
55633;SDS011;41504;53.162;6.788;2023-04-07T14:24:23;14.90;;;12.35;;
55633;SDS011;41504;53.162;6.788;2023-04-07T14:26:49;16.48;;;12.13;;
55633;SDS011;41504;53.162;6.788;2023-04-07T14:29:15;15.13;;;12.15;;
55633;SDS011;41504;53.162;6.788;2023-04-07T14:31:41;13.90;;;12.23;;
55633;SDS011;41504;53.162;6.788;2023-04-07T14:34:09;16.42;;;12.68;;
55633;SDS011;41504;53.162;6.788;2023-04-07T14:36:35;17.27;;;12.75;;
55633;SDS011;41504;53.162;6.788;2023-04-07T14:39:00;15.82;;;12.75;;
55633;SDS011;41504;53.162;6.788;2023-04-07T14:41:26;14.45;;;12.93;;
55633;SDS011;41504;53.162;6.788;2023-04-07T14:43:52;14.80;;;12.32;;
55633;SDS011;41504;53.162;6.788;2023-04-07T14:46:24;15.55;;;12.65;;
55633;SDS011;41504;53.162;6.788;2023-04-07T14:48:53;15.03;;;12.90;;
55633;SDS011;41504;53.162;6.788;2023-04-07T14:51:20;15.95;;;12.70;;
55633;SDS011;41504;53.162;6.788;2023-04-07T14:53:46;16.10;;;12.63;;
55633;SDS011;41504;53.162;6.788;2023-04-07T14:56:17;16.23;;;13.18;;
55633;SDS011;41504;53.162;6.788;2023-04-07T14:58:45;16.48;;;12.85;;
55633;SDS011;41504;53.162;6.788;2023-04-07T15:01:32;17.15;;;13.07;;
55633;SDS011;41504;53.162;6.788;2023-04-07T15:04:16;17.35;;;13.68;;
55633;SDS011;41504;53.162;6.788;2023-04-07T15:06:53;16.95;;;13.93;;
55633;SDS011;41504;53.162;6.788;2023-04-07T15:09:19;16.45;;;13.30;;
55633;SDS011;41504;53.162;6.788;2023-04-07T15:11:45;16.63;;;13.27;;
55633;SDS011;41504;53.162;6.788;2023-04-07T15:14:11;16.38;;;13.65;;
55633;SDS011;41504;53.162;6.788;2023-04-07T15:16:36;16.02;;;13.05;;
55633;SDS011;41504;53.162;6.788;2023-04-07T15:19:02;17.80;;;13.77;;
55633;SDS011;41504;53.162;6.788;2023-04-07T15:21:34;17.38;;;12.90;;
55633;SDS011;41504;53.162;6.788;2023-04-07T15:24:00;16.02;;;13.45;;
55633;SDS011;41504;53.162;6.788;2023-04-07T15:26:26;16.45;;;13.15;;
55633;SDS011;41504;53.162;6.788;2023-04-07T15:28:51;16.27;;;13.18;;
55633;SDS011;41504;53.162;6.788;2023-04-07T15:31:17;16.17;;;12.43;;
55633;SDS011;41504;53.162;6.788;2023-04-07T15:33:45;16.27;;;12.07;;
55633;SDS011;41504;53.162;6.788;2023-04-07T15:36:12;14.18;;;11.60;;
55633;SDS011;41504;53.162;6.788;2023-04-07T15:38:40;16.15;;;11.70;;
55633;SDS011;41504;53.162;6.788;2023-04-07T15:41:13;15.30;;;11.82;;
55633;SDS011;41504;53.162;6.788;2023-04-07T15:43:43;14.35;;;12.65;;
55633;SDS011;41504;53.162;6.788;2023-04-07T15:46:18;14.15;;;11.98;;
55633;SDS011;41504;53.162;6.788;2023-04-07T15:48:44;14.02;;;11.45;;
55633;SDS011;41504;53.162;6.788;2023-04-07T15:51:11;14.50;;;11.75;;
55633;SDS011;41504;53.162;6.788;2023-04-07T15:53:40;13.52;;;11.02;;
55633;SDS011;41504;53.162;6.788;2023-04-07T15:56:12;16.27;;;12.13;;
55633;SDS011;41504;53.162;6.788;2023-04-07T15:58:51;15.02;;;12.02;;
55633;SDS011;41504;53.162;6.788;2023-04-07T16:01:17;15.82;;;12.05;;
55633;SDS011;41504;53.162;6.788;2023-04-07T16:03:44;15.95;;;11.90;;
55633;SDS011;41504;53.162;6.788;2023-04-07T16:06:14;13.75;;;11.27;;
55633;SDS011;41504;53.162;6.788;2023-04-07T16:08:40;12.95;;;11.25;;
55633;SDS011;41504;53.162;6.788;2023-04-07T16:11:06;14.20;;;12.32;;
55633;SDS011;41504;53.162;6.788;2023-04-07T16:13:38;15.30;;;11.63;;
55633;SDS011;41504;53.162;6.788;2023-04-07T16:16:04;15.23;;;11.55;;